createdAt,value
2022-12-29T00:00:42.747Z,9.87
2022-12-29T00:01:42.665Z,9.94
2022-12-29T00:02:42.878Z,9.94
2022-12-29T00:03:42.773Z,9.93
2022-12-29T00:04:42.670Z,9.93
2022-12-29T00:05:42.618Z,9.91
2022-12-29T00:06:42.609Z,10.01
2022-12-29T00:07:42.627Z,10.02
2022-12-29T00:08:42.582Z,9.99
2022-12-29T00:09:42.603Z,10.02
2022-12-29T00:10:42.554Z,9.99
2022-12-29T00:11:42.563Z,10.02
2022-12-29T00:12:42.551Z,10.01
2022-12-29T00:13:42.531Z,10.02
2022-12-29T00:14:42.523Z,10.04
2022-12-29T00:15:42.559Z,9.96
2022-12-29T00:16:42.540Z,9.93
2022-12-29T00:17:42.506Z,9.93
2022-12-29T00:18:42.472Z,9.90
2022-12-29T00:19:42.456Z,9.87
2022-12-29T00:20:42.509Z,9.93
2022-12-29T00:21:42.451Z,9.89
2022-12-29T00:22:42.424Z,9.97
2022-12-29T00:23:42.423Z,9.90
2022-12-29T00:24:42.400Z,9.93
2022-12-29T00:25:42.391Z,9.96
2022-12-29T00:26:42.389Z,9.90
2022-12-29T00:27:42.373Z,9.93
2022-12-29T00:28:42.358Z,9.96
2022-12-29T00:29:42.376Z,9.97
2022-12-29T00:30:42.338Z,10.05
2022-12-29T00:31:42.375Z,10.01
2022-12-29T00:32:42.316Z,10.01
2022-12-29T00:33:42.301Z,10.04
2022-12-29T00:34:42.292Z,10.04
2022-12-29T00:35:42.307Z,10.04
2022-12-29T00:36:42.279Z,10.07
2022-12-29T00:37:42.274Z,9.97
2022-12-29T00:38:42.240Z,10.08
2022-12-29T00:39:42.239Z,10.07
2022-12-29T00:40:42.248Z,10.02
2022-12-29T00:41:42.212Z,10.05
2022-12-29T00:42:42.201Z,10.07
2022-12-29T00:43:42.198Z,10.07
2022-12-29T00:44:42.208Z,10.05
2022-12-29T00:45:42.209Z,10.02
2022-12-29T00:46:42.201Z,10.07
2022-12-29T00:47:42.165Z,10.12
2022-12-29T00:48:42.137Z,10.18
2022-12-29T00:49:42.185Z,10.12
2022-12-29T00:50:42.133Z,10.15
2022-12-29T00:51:42.120Z,10.12
2022-12-29T00:52:42.115Z,10.22
2022-12-29T00:53:42.077Z,10.18
2022-12-29T00:54:42.127Z,10.09
2022-12-29T00:55:42.076Z,10.05
2022-12-29T00:56:42.045Z,10.12
2022-12-29T00:57:42.040Z,10.09
2022-12-29T00:58:42.070Z,10.02
2022-12-29T00:59:42.030Z,10.01
2022-12-29T01:00:42.126Z,10.07
2022-12-29T01:01:42.109Z,10.22
2022-12-29T01:02:42.122Z,10.15
2022-12-29T01:03:42.017Z,10.17
2022-12-29T01:04:41.986Z,10.15
2022-12-29T01:05:41.969Z,10.23
2022-12-29T01:06:41.951Z,10.22
2022-12-29T01:07:41.938Z,10.12
2022-12-29T01:08:41.944Z,10.12
2022-12-29T01:09:41.930Z,10.09
2022-12-29T01:10:41.906Z,10.18
2022-12-29T01:11:41.885Z,10.18
2022-12-29T01:12:41.970Z,10.15
2022-12-29T01:13:41.855Z,10.23
2022-12-29T01:14:41.854Z,10.29
2022-12-29T01:15:41.839Z,10.27
2022-12-29T01:16:41.876Z,10.23
2022-12-29T01:17:41.835Z,10.26
2022-12-29T01:18:41.826Z,10.26
2022-12-29T01:19:41.789Z,10.26
2022-12-29T01:20:41.802Z,10.30
2022-12-29T01:21:41.795Z,10.23
2022-12-29T01:22:41.752Z,10.25
2022-12-29T01:23:41.745Z,10.26
2022-12-29T01:24:41.759Z,10.15
2022-12-29T01:25:41.749Z,10.22
2022-12-29T01:26:41.714Z,10.17
2022-12-29T01:27:41.701Z,10.15
2022-12-29T01:28:41.705Z,10.22
2022-12-29T01:29:41.683Z,10.18
2022-12-29T01:30:41.670Z,10.20
2022-12-29T01:31:41.736Z,10.20
2022-12-29T01:32:41.675Z,10.20
2022-12-29T01:33:41.637Z,10.20
2022-12-29T01:34:41.619Z,10.09
2022-12-29T01:35:41.621Z,10.04
2022-12-29T01:36:41.599Z,10.02
2022-12-29T01:37:41.616Z,10.20
2022-12-29T01:38:41.583Z,10.15
2022-12-29T01:39:41.564Z,10.32
2022-12-29T01:40:41.583Z,10.15
2022-12-29T01:41:41.564Z,10.25
2022-12-29T01:42:41.536Z,10.25
2022-12-29T01:43:41.529Z,10.20
2022-12-29T01:44:42.447Z,10.29
2022-12-29T01:45:41.577Z,10.29
2022-12-29T01:46:41.538Z,10.26
2022-12-29T01:47:41.489Z,10.36
2022-12-29T01:48:41.475Z,10.36
2022-12-29T01:49:41.478Z,10.47
2022-12-29T01:50:41.447Z,10.45
2022-12-29T01:51:41.479Z,10.53
2022-12-29T01:52:41.426Z,10.44
2022-12-29T01:53:41.413Z,10.44
2022-12-29T01:54:41.481Z,10.47
2022-12-29T01:55:41.394Z,10.42
2022-12-29T01:56:41.399Z,10.45
2022-12-29T01:57:41.687Z,10.48
2022-12-29T01:58:41.356Z,10.51
2022-12-29T01:59:41.353Z,10.47
2022-12-29T02:00:41.447Z,10.40
2022-12-29T02:01:41.434Z,10.52
2022-12-29T02:02:41.573Z,10.48
2022-12-29T02:03:41.373Z,10.52
2022-12-29T02:04:41.290Z,10.47
2022-12-29T02:05:41.289Z,10.47
2022-12-29T02:06:41.271Z,10.36
2022-12-29T02:07:41.289Z,10.34
2022-12-29T02:08:41.254Z,10.36
2022-12-29T02:09:41.253Z,10.45
2022-12-29T02:10:41.238Z,10.41
2022-12-29T02:11:41.222Z,10.41
2022-12-29T02:12:41.226Z,10.45
2022-12-29T02:13:41.187Z,10.48
2022-12-29T02:14:41.253Z,10.53
2022-12-29T02:15:41.173Z,10.48
2022-12-29T02:16:41.242Z,10.53
2022-12-29T02:17:41.144Z,10.59
2022-12-29T02:18:41.178Z,10.61
2022-12-29T02:19:41.144Z,10.60
2022-12-29T02:20:41.120Z,10.55
2022-12-29T02:21:41.098Z,10.61
2022-12-29T02:22:41.090Z,10.63
2022-12-29T02:23:41.091Z,10.68
2022-12-29T02:24:41.103Z,10.68
2022-12-29T02:25:41.059Z,10.76
2022-12-29T02:26:41.074Z,10.71
2022-12-29T02:27:41.033Z,10.73
2022-12-29T02:28:41.052Z,10.68
2022-12-29T02:29:41.071Z,10.78
2022-12-29T02:30:41.005Z,10.74
2022-12-29T02:31:41.084Z,10.84
2022-12-29T02:32:41.011Z,10.79
2022-12-29T02:33:40.973Z,10.82
2022-12-29T02:34:40.959Z,10.85
2022-12-29T02:35:40.949Z,10.88
2022-12-29T02:36:40.954Z,10.84
2022-12-29T02:37:40.932Z,10.82
2022-12-29T02:38:40.907Z,10.84
2022-12-29T02:39:40.896Z,10.91
2022-12-29T02:40:40.897Z,10.85
2022-12-29T02:41:40.917Z,10.78
2022-12-29T02:42:40.892Z,10.89
2022-12-29T02:43:40.860Z,10.86
2022-12-29T02:44:40.902Z,10.91
2022-12-29T02:45:40.917Z,10.97
2022-12-29T02:46:40.830Z,10.97
2022-12-29T02:47:40.814Z,10.96
2022-12-29T02:48:40.912Z,10.88
2022-12-29T02:49:40.803Z,10.84
2022-12-29T02:50:40.779Z,10.97
2022-12-29T02:51:40.766Z,10.92
2022-12-29T02:52:40.757Z,10.89
2022-12-29T02:53:40.745Z,10.84
2022-12-29T02:54:40.754Z,10.84
2022-12-29T02:55:40.791Z,10.81
2022-12-29T02:56:40.762Z,10.85
2022-12-29T02:57:40.709Z,10.94
2022-12-29T02:58:40.689Z,10.99
2022-12-29T02:59:40.683Z,10.96
2022-12-29T03:00:40.689Z,11.00
2022-12-29T03:01:40.958Z,11.00
2022-12-29T03:02:40.890Z,10.96
2022-12-29T03:03:40.640Z,10.91
2022-12-29T03:04:40.624Z,10.97
2022-12-29T03:05:40.627Z,10.94
2022-12-29T03:06:40.640Z,10.88
2022-12-29T03:07:40.618Z,10.97
2022-12-29T03:08:40.581Z,11.02
2022-12-29T03:09:40.616Z,11.09
2022-12-29T03:10:40.554Z,11.10
2022-12-29T03:11:40.551Z,11.04
2022-12-29T03:12:40.579Z,11.06
2022-12-29T03:13:40.560Z,11.10
2022-12-29T03:14:40.520Z,11.02
2022-12-29T03:15:40.528Z,11.14
2022-12-29T03:16:40.592Z,10.97
2022-12-29T03:17:40.486Z,10.96
2022-12-29T03:18:40.498Z,10.99
2022-12-29T03:19:40.459Z,11.11
2022-12-29T03:20:40.484Z,11.09
2022-12-29T03:21:40.438Z,11.03
2022-12-29T03:22:40.488Z,11.00
2022-12-29T03:23:40.421Z,10.99
2022-12-29T03:24:40.396Z,10.97
2022-12-29T03:25:40.390Z,10.96
2022-12-29T03:26:40.444Z,10.84
2022-12-29T03:27:40.408Z,10.94
2022-12-29T03:28:40.358Z,10.94
2022-12-29T03:29:40.386Z,10.92
2022-12-29T03:30:40.417Z,10.78
2022-12-29T03:31:40.347Z,10.88
2022-12-29T03:32:40.383Z,10.84
2022-12-29T03:33:40.331Z,10.85
2022-12-29T03:34:40.312Z,10.86
2022-12-29T03:35:40.302Z,10.79
2022-12-29T03:36:40.298Z,10.82
2022-12-29T03:37:40.266Z,10.81
2022-12-29T03:38:40.273Z,10.81
2022-12-29T03:39:40.235Z,10.81
2022-12-29T03:40:40.222Z,10.76
2022-12-29T03:41:40.237Z,10.84
2022-12-29T03:42:40.201Z,10.71
2022-12-29T03:43:48.271Z,10.76
2022-12-29T03:44:40.254Z,10.71
2022-12-29T03:45:40.167Z,10.76
2022-12-29T03:46:40.303Z,10.70
2022-12-29T03:47:40.166Z,10.81
2022-12-29T03:48:40.188Z,10.73
2022-12-29T03:49:40.134Z,10.82
2022-12-29T03:50:40.107Z,10.84
2022-12-29T03:51:40.119Z,10.85
2022-12-29T03:52:40.103Z,10.86
2022-12-29T03:53:40.092Z,10.76
2022-12-29T03:54:40.086Z,10.71
2022-12-29T03:55:40.074Z,10.64
2022-12-29T03:56:40.113Z,10.61
2022-12-29T03:57:40.062Z,10.60
2022-12-29T03:58:40.076Z,10.60
2022-12-29T03:59:40.052Z,10.73
2022-12-29T04:00:40.043Z,10.70
2022-12-29T04:01:40.129Z,10.68
2022-12-29T04:02:40.130Z,10.71
2022-12-29T04:03:40.045Z,10.73
2022-12-29T04:04:39.982Z,10.61
2022-12-29T04:05:39.947Z,10.60
2022-12-29T04:06:39.945Z,10.71
2022-12-29T04:07:39.973Z,10.74
2022-12-29T04:08:39.938Z,10.74
2022-12-29T04:09:39.924Z,10.73
2022-12-29T04:10:39.946Z,10.74
2022-12-29T04:11:39.912Z,10.64
2022-12-29T04:12:39.866Z,10.66
2022-12-29T04:13:39.904Z,10.64
2022-12-29T04:14:39.869Z,10.56
2022-12-29T04:15:39.957Z,10.68
2022-12-29T04:16:40.058Z,10.76
2022-12-29T04:17:39.822Z,10.86
2022-12-29T04:18:39.835Z,10.82
2022-12-29T04:19:39.853Z,10.82
2022-12-29T04:20:39.848Z,10.85
2022-12-29T04:21:39.793Z,10.86
2022-12-29T04:22:39.765Z,10.88
2022-12-29T04:23:39.908Z,10.84
2022-12-29T04:24:39.740Z,10.79
2022-12-29T04:25:39.750Z,10.82
2022-12-29T04:26:39.767Z,10.89
2022-12-29T04:27:39.727Z,10.85
2022-12-29T04:28:39.693Z,10.86
2022-12-29T04:29:39.728Z,10.79
2022-12-29T04:30:39.685Z,10.74
2022-12-29T04:31:39.749Z,10.74
2022-12-29T04:32:39.756Z,10.76
2022-12-29T04:33:39.631Z,10.79
2022-12-29T04:34:39.630Z,10.74
2022-12-29T04:35:39.642Z,10.89
2022-12-29T04:36:39.643Z,10.78
2022-12-29T04:37:39.591Z,10.79
2022-12-29T04:38:39.579Z,10.79
2022-12-29T04:39:39.594Z,10.74
2022-12-29T04:40:39.569Z,10.82
2022-12-29T04:41:39.582Z,10.84
2022-12-29T04:42:39.553Z,10.82
2022-12-29T04:43:39.529Z,10.86
2022-12-29T04:44:44.846Z,10.84
2022-12-29T04:45:40.497Z,10.85
2022-12-29T04:46:39.587Z,10.88
2022-12-29T04:47:39.487Z,10.82
2022-12-29T04:48:39.492Z,10.84
2022-12-29T04:49:39.472Z,10.85
2022-12-29T04:50:39.468Z,10.82
2022-12-29T04:51:39.461Z,10.81
2022-12-29T04:52:39.447Z,10.81
2022-12-29T04:53:39.440Z,10.82
2022-12-29T04:54:39.449Z,10.84
2022-12-29T04:55:39.400Z,10.81
2022-12-29T04:56:39.401Z,10.85
2022-12-29T04:57:39.376Z,10.76
2022-12-29T04:58:39.378Z,10.84
2022-12-29T04:59:39.346Z,10.71
2022-12-29T05:00:39.336Z,10.81
2022-12-29T05:01:39.457Z,10.85
2022-12-29T05:02:39.639Z,10.86
2022-12-29T05:03:39.374Z,10.82
2022-12-29T05:04:39.299Z,10.85
2022-12-29T05:05:39.306Z,10.88
2022-12-29T05:06:39.267Z,10.81
2022-12-29T05:07:39.260Z,10.78
2022-12-29T05:08:39.273Z,10.76
2022-12-29T05:09:39.251Z,10.82
2022-12-29T05:10:39.231Z,10.88
2022-12-29T05:11:39.241Z,10.86
2022-12-29T05:12:39.224Z,10.86
2022-12-29T05:13:39.223Z,10.82
2022-12-29T05:14:39.198Z,10.88
2022-12-29T05:15:39.264Z,10.85
2022-12-29T05:16:39.229Z,10.81
2022-12-29T05:17:39.176Z,10.79
2022-12-29T05:18:39.156Z,10.76
2022-12-29T05:19:39.134Z,10.68
2022-12-29T05:20:39.129Z,10.68
2022-12-29T05:21:39.144Z,10.79
2022-12-29T05:22:39.134Z,10.73
2022-12-29T05:23:39.081Z,10.82
2022-12-29T05:24:39.101Z,10.89
2022-12-29T05:25:39.075Z,10.88
2022-12-29T05:26:39.047Z,10.79
2022-12-29T05:27:39.076Z,10.71
2022-12-29T05:28:39.028Z,10.71
2022-12-29T05:29:39.019Z,10.73
2022-12-29T05:30:39.032Z,10.74
2022-12-29T05:31:39.188Z,10.68
2022-12-29T05:32:38.997Z,10.71
2022-12-29T05:33:38.972Z,10.78
2022-12-29T05:34:38.962Z,10.79
2022-12-29T05:35:38.987Z,10.82
2022-12-29T05:36:38.965Z,10.79
2022-12-29T05:37:38.955Z,10.78
2022-12-29T05:38:38.947Z,10.67
2022-12-29T05:39:38.913Z,10.66
2022-12-29T05:40:38.940Z,10.63
2022-12-29T05:41:38.899Z,10.78
2022-12-29T05:42:38.921Z,10.71
2022-12-29T05:43:38.880Z,10.71
2022-12-29T05:44:38.849Z,10.74
2022-12-29T05:45:38.842Z,10.68
2022-12-29T05:46:38.881Z,10.76
2022-12-29T05:47:38.841Z,10.61
2022-12-29T05:48:38.818Z,10.66
2022-12-29T05:49:38.817Z,10.63
2022-12-29T05:50:38.784Z,10.81
2022-12-29T05:51:38.812Z,10.79
2022-12-29T05:52:38.777Z,10.76
2022-12-29T05:53:38.754Z,10.86
2022-12-29T05:54:38.752Z,10.78
2022-12-29T05:55:43.412Z,10.84
2022-12-29T05:56:39.777Z,10.85
2022-12-29T05:57:38.729Z,10.81
2022-12-29T05:58:38.700Z,10.85
2022-12-29T05:59:38.685Z,10.79
2022-12-29T06:00:38.675Z,10.81
2022-12-29T06:01:38.780Z,10.81
2022-12-29T06:02:38.861Z,10.84
2022-12-29T06:03:42.963Z,10.78
2022-12-29T06:04:39.635Z,10.86
2022-12-29T06:05:38.619Z,10.79
2022-12-29T06:06:38.624Z,10.79
2022-12-29T06:07:38.626Z,10.82
2022-12-29T06:08:38.582Z,10.91
2022-12-29T06:09:38.574Z,10.85
2022-12-29T06:10:38.584Z,10.92
2022-12-29T06:11:38.569Z,10.88
2022-12-29T06:12:38.577Z,10.97
2022-12-29T06:13:38.530Z,10.96
2022-12-29T06:14:38.543Z,10.99
2022-12-29T06:15:38.535Z,10.85
2022-12-29T06:16:38.514Z,10.89
2022-12-29T06:17:38.512Z,10.84
2022-12-29T06:18:38.471Z,10.79
2022-12-29T06:19:38.468Z,10.84
2022-12-29T06:20:38.453Z,10.78
2022-12-29T06:21:38.448Z,10.84
2022-12-29T06:22:38.453Z,10.88
2022-12-29T06:23:38.428Z,10.91
2022-12-29T06:24:38.408Z,10.94
2022-12-29T06:25:38.400Z,11.09
2022-12-29T06:26:38.391Z,11.09
2022-12-29T06:27:38.373Z,11.06
2022-12-29T06:28:38.398Z,11.14
2022-12-29T06:29:38.359Z,11.17
2022-12-29T06:30:38.339Z,11.10
2022-12-29T06:31:38.385Z,11.04
2022-12-29T06:32:38.360Z,10.99
2022-12-29T06:33:38.305Z,10.92
2022-12-29T06:34:38.321Z,10.89
2022-12-29T06:35:38.288Z,10.88
2022-12-29T06:36:38.275Z,10.85
2022-12-29T06:37:38.263Z,10.92
2022-12-29T06:38:38.289Z,10.91
2022-12-29T06:39:38.242Z,10.91
2022-12-29T06:40:38.251Z,10.97
2022-12-29T06:41:38.216Z,11.09
2022-12-29T06:42:38.219Z,11.07
2022-12-29T06:43:38.195Z,11.06
2022-12-29T06:44:38.200Z,11.09
2022-12-29T06:45:38.240Z,11.00
2022-12-29T06:46:38.213Z,10.96
2022-12-29T06:47:38.157Z,10.96
2022-12-29T06:48:38.134Z,10.97
2022-12-29T06:49:38.139Z,10.91
2022-12-29T06:50:38.153Z,10.91
2022-12-29T06:51:38.132Z,10.85
2022-12-29T06:52:38.112Z,10.85
2022-12-29T06:53:38.114Z,10.84
2022-12-29T06:54:38.073Z,10.78
2022-12-29T06:55:38.073Z,10.84
2022-12-29T06:56:38.131Z,10.84
2022-12-29T06:57:38.039Z,10.89
2022-12-29T06:58:38.029Z,10.96
2022-12-29T06:59:38.018Z,10.86
2022-12-29T07:00:38.031Z,10.92
2022-12-29T07:01:38.176Z,10.91
2022-12-29T07:02:38.099Z,10.96
2022-12-29T07:03:38.033Z,10.91
2022-12-29T07:04:37.960Z,10.88
2022-12-29T07:05:37.956Z,10.88
2022-12-29T07:06:37.988Z,10.92
2022-12-29T07:07:37.927Z,10.96
2022-12-29T07:08:37.920Z,10.97
2022-12-29T07:09:37.910Z,11.00
2022-12-29T07:10:37.897Z,10.97
2022-12-29T07:11:37.908Z,10.92
2022-12-29T07:12:37.879Z,11.00
2022-12-29T07:13:37.863Z,10.94
2022-12-29T07:14:43.009Z,10.88
2022-12-29T07:15:38.856Z,10.82
2022-12-29T07:16:37.950Z,10.94
2022-12-29T07:17:37.816Z,11.00
2022-12-29T07:18:37.831Z,10.96
2022-12-29T07:19:37.791Z,10.94
2022-12-29T07:20:37.789Z,11.04
2022-12-29T07:21:37.776Z,11.00
2022-12-29T07:22:37.762Z,10.96
2022-12-29T07:23:37.780Z,11.04
2022-12-29T07:24:37.772Z,11.02
2022-12-29T07:25:37.729Z,11.06
2022-12-29T07:26:37.724Z,11.03
2022-12-29T07:27:37.891Z,11.02
2022-12-29T07:28:37.695Z,11.15
2022-12-29T07:29:37.679Z,11.11
2022-12-29T07:30:37.676Z,11.11
2022-12-29T07:31:37.776Z,11.18
2022-12-29T07:32:37.672Z,11.11
2022-12-29T07:33:37.672Z,11.14
2022-12-29T07:34:37.628Z,11.11
2022-12-29T07:35:37.622Z,11.22
2022-12-29T07:36:37.608Z,11.22
2022-12-29T07:37:37.614Z,11.21
2022-12-29T07:38:37.612Z,11.18
2022-12-29T07:39:37.584Z,11.21
2022-12-29T07:40:37.564Z,11.19
2022-12-29T07:41:37.562Z,11.21
2022-12-29T07:42:37.543Z,11.17
2022-12-29T07:43:37.549Z,11.10
2022-12-29T07:44:37.531Z,11.10
2022-12-29T07:45:37.524Z,11.15
2022-12-29T07:46:56.060Z,11.15
2022-12-29T07:47:38.520Z,11.10
2022-12-29T07:48:37.503Z,11.02
2022-12-29T07:49:37.494Z,11.11
2022-12-29T07:50:37.489Z,11.06
2022-12-29T07:51:37.445Z,11.22
2022-12-29T07:52:37.457Z,11.18
2022-12-29T07:53:37.418Z,11.25
2022-12-29T07:54:37.430Z,11.22
2022-12-29T07:55:37.426Z,11.19
2022-12-29T07:56:37.422Z,11.21
2022-12-29T07:57:37.374Z,11.25
2022-12-29T07:58:37.367Z,11.29
2022-12-29T07:59:37.373Z,11.24
2022-12-29T08:00:37.342Z,11.24
2022-12-29T08:01:37.498Z,11.19
2022-12-29T08:02:37.398Z,11.14
2022-12-29T08:03:37.414Z,11.00
2022-12-29T08:04:37.320Z,11.00
2022-12-29T08:05:37.295Z,10.94
2022-12-29T08:06:37.308Z,10.96
2022-12-29T08:07:37.309Z,10.91
2022-12-29T08:08:37.264Z,10.85
2022-12-29T08:09:37.245Z,10.88
2022-12-29T08:10:37.237Z,10.89
2022-12-29T08:11:37.231Z,10.82
2022-12-29T08:12:37.232Z,10.78
2022-12-29T08:13:37.198Z,10.79
2022-12-29T08:14:37.186Z,10.76
2022-12-29T08:15:37.312Z,10.76
2022-12-29T08:16:37.187Z,10.71
2022-12-29T08:17:37.182Z,10.68
2022-12-29T08:18:37.136Z,10.60
2022-12-29T08:19:37.160Z,10.63
2022-12-29T08:20:37.143Z,10.59
2022-12-29T08:21:37.160Z,10.60
2022-12-29T08:22:37.124Z,10.61
2022-12-29T08:23:37.094Z,10.67
2022-12-29T08:24:37.097Z,10.68
2022-12-29T08:25:37.073Z,10.67
2022-12-29T08:26:37.121Z,10.66
2022-12-29T08:27:37.046Z,10.59
2022-12-29T08:28:37.037Z,10.56
2022-12-29T08:29:37.033Z,10.47
2022-12-29T08:30:37.066Z,10.51
2022-12-29T08:31:37.081Z,10.56
2022-12-29T08:32:37.008Z,10.42
2022-12-29T08:33:37.056Z,10.48
2022-12-29T08:34:36.986Z,10.45
2022-12-29T08:35:36.967Z,10.38
2022-12-29T08:36:36.978Z,10.48
2022-12-29T08:37:36.927Z,10.42
2022-12-29T08:38:36.922Z,10.45
2022-12-29T08:39:36.908Z,10.33
2022-12-29T08:40:36.908Z,10.38
2022-12-29T08:41:36.902Z,10.38
2022-12-29T08:42:36.905Z,10.29
2022-12-29T08:43:36.857Z,10.27
2022-12-29T08:44:36.870Z,10.18
2022-12-29T08:45:36.837Z,10.15
2022-12-29T08:46:36.865Z,10.22
2022-12-29T08:47:36.839Z,10.15
2022-12-29T08:48:36.832Z,10.15
2022-12-29T08:49:36.825Z,10.27
2022-12-29T08:50:36.795Z,10.22
2022-12-29T08:51:36.773Z,10.20
2022-12-29T08:52:36.797Z,10.29
2022-12-29T08:53:36.755Z,10.15
2022-12-29T08:54:36.755Z,10.11
2022-12-29T08:55:36.800Z,10.15
2022-12-29T08:56:36.720Z,10.23
2022-12-29T08:57:36.727Z,10.22
2022-12-29T08:58:36.722Z,10.15
2022-12-29T08:59:36.680Z,10.23
2022-12-29T09:00:36.694Z,10.15
2022-12-29T09:01:36.821Z,10.20
2022-12-29T09:02:36.842Z,10.18
2022-12-29T09:04:37.669Z,10.18
2022-12-29T09:05:36.618Z,10.17
2022-12-29T09:06:40.486Z,10.11
2022-12-29T09:07:36.618Z,10.11
2022-12-29T09:08:36.611Z,10.08
2022-12-29T09:09:36.579Z,9.96
2022-12-29T09:10:36.584Z,9.93
2022-12-29T09:11:36.557Z,9.97
2022-12-29T09:12:37.010Z,9.91
2022-12-29T09:13:36.545Z,10.08
2022-12-29T09:14:36.520Z,9.96
2022-12-29T09:15:36.624Z,9.99
2022-12-29T09:16:36.543Z,9.91
2022-12-29T09:17:36.484Z,9.91
2022-12-29T09:18:36.481Z,9.90
2022-12-29T09:19:36.747Z,9.94
2022-12-29T09:20:36.476Z,9.94
2022-12-29T09:21:36.437Z,9.79
2022-12-29T09:22:36.558Z,9.81
2022-12-29T09:23:36.440Z,9.75
2022-12-29T09:24:36.440Z,9.76
2022-12-29T09:25:36.398Z,9.83
2022-12-29T09:26:38.429Z,9.76
2022-12-29T09:27:36.412Z,9.78
2022-12-29T09:28:36.361Z,9.78
2022-12-29T09:29:36.351Z,9.76
2022-12-29T09:30:36.340Z,9.79
2022-12-29T09:31:36.381Z,9.78
2022-12-29T09:32:42.010Z,9.79
2022-12-29T09:33:37.442Z,9.74
2022-12-29T09:34:36.313Z,9.71
2022-12-29T09:35:36.288Z,9.65
2022-12-29T09:36:36.274Z,9.72
2022-12-29T09:37:36.277Z,9.72
2022-12-29T09:38:36.275Z,9.76
2022-12-29T09:39:36.244Z,9.74
2022-12-29T09:40:36.251Z,9.72
2022-12-29T09:41:36.235Z,9.79
2022-12-29T09:42:36.210Z,9.74
2022-12-29T09:43:44.296Z,9.76
2022-12-29T09:44:36.186Z,9.76
2022-12-29T09:45:36.175Z,9.81
2022-12-29T09:46:36.285Z,9.75
2022-12-29T09:47:36.161Z,9.79
2022-12-29T09:48:36.140Z,9.78
2022-12-29T09:49:36.233Z,9.75
2022-12-29T09:50:36.153Z,9.81
2022-12-29T09:51:36.126Z,9.76
2022-12-29T09:52:36.093Z,9.91
2022-12-29T09:53:36.119Z,9.87
2022-12-29T09:54:36.077Z,9.90
2022-12-29T09:55:36.082Z,9.91
2022-12-29T09:56:36.093Z,9.96
2022-12-29T09:57:36.039Z,9.79
2022-12-29T09:58:36.042Z,9.84
2022-12-29T09:59:36.057Z,9.86
2022-12-29T10:00:36.104Z,9.93
2022-12-29T10:01:36.119Z,9.97
2022-12-29T10:02:36.083Z,9.90
2022-12-29T10:03:35.979Z,9.91
2022-12-29T10:04:35.968Z,9.93
2022-12-29T10:05:35.972Z,9.90
2022-12-29T10:06:45.475Z,9.94
2022-12-29T10:07:36.932Z,9.91
2022-12-29T10:08:36.215Z,9.91
2022-12-29T10:09:35.935Z,9.91
2022-12-29T10:10:35.910Z,10.04
2022-12-29T10:11:35.891Z,10.04
2022-12-29T10:12:35.902Z,10.09
2022-12-29T10:13:35.857Z,10.20
2022-12-29T10:14:35.875Z,10.23
2022-12-29T10:15:35.843Z,10.09
2022-12-29T10:16:35.879Z,10.20
2022-12-29T10:17:35.822Z,10.20
2022-12-29T10:18:35.805Z,10.20
2022-12-29T10:19:35.797Z,10.34
2022-12-29T10:20:35.812Z,10.38
2022-12-29T10:21:35.817Z,10.40
2022-12-29T10:22:35.764Z,10.51
2022-12-29T10:23:35.755Z,10.53
2022-12-29T10:24:35.757Z,10.52
2022-12-29T10:25:35.771Z,10.63
2022-12-29T10:26:35.713Z,10.64
2022-12-29T10:27:35.715Z,10.64
2022-12-29T10:28:35.737Z,10.68
2022-12-29T10:29:35.694Z,10.79
2022-12-29T10:30:35.719Z,10.74
2022-12-29T10:31:35.961Z,10.82
2022-12-29T10:32:35.687Z,10.82
2022-12-29T10:33:35.662Z,10.88
2022-12-29T10:34:35.652Z,10.81
2022-12-29T10:35:35.615Z,10.84
2022-12-29T10:36:35.625Z,10.92
2022-12-29T10:37:35.606Z,10.81
2022-12-29T10:38:35.594Z,10.89
2022-12-29T10:39:35.597Z,11.02
2022-12-29T10:40:35.562Z,11.06
2022-12-29T10:41:35.582Z,11.04
2022-12-29T10:42:35.559Z,11.09
2022-12-29T10:43:35.567Z,10.94
2022-12-29T10:44:35.560Z,10.96
2022-12-29T10:45:35.741Z,10.99
2022-12-29T10:46:35.566Z,10.92
2022-12-29T10:47:35.512Z,10.91
2022-12-29T10:48:35.558Z,10.86
2022-12-29T10:49:35.510Z,10.82
2022-12-29T10:50:35.480Z,10.79
2022-12-29T10:51:35.441Z,10.86
2022-12-29T10:52:35.448Z,10.71
2022-12-29T10:53:35.431Z,10.86
2022-12-29T10:54:35.421Z,10.76
2022-12-29T10:55:35.436Z,10.89
2022-12-29T10:56:35.384Z,10.99
2022-12-29T10:57:35.377Z,11.15
2022-12-29T10:58:35.360Z,11.21
2022-12-29T10:59:35.370Z,11.24
2022-12-29T11:00:35.438Z,11.37
2022-12-29T11:01:35.512Z,11.57
2022-12-29T11:02:35.432Z,11.60
2022-12-29T11:03:35.384Z,11.85
2022-12-29T11:04:35.324Z,11.86
2022-12-29T11:05:35.287Z,11.90
2022-12-29T11:06:35.281Z,11.95
2022-12-29T11:07:35.271Z,12.12
2022-12-29T11:08:35.259Z,12.09
2022-12-29T11:09:42.434Z,11.99
2022-12-29T11:10:36.222Z,12.01
2022-12-29T11:11:35.227Z,11.91
2022-12-29T11:12:35.206Z,11.88
2022-12-29T11:13:39.306Z,11.88
2022-12-29T11:14:35.225Z,11.94
2022-12-29T11:15:35.196Z,12.05
2022-12-29T11:16:35.423Z,11.95
2022-12-29T11:17:35.154Z,11.91
2022-12-29T11:18:35.183Z,11.85
2022-12-29T11:19:40.776Z,11.80
2022-12-29T11:20:36.128Z,11.73
2022-12-29T11:21:35.106Z,11.73
2022-12-29T11:22:35.146Z,11.58
2022-12-29T11:23:35.105Z,11.76
2022-12-29T11:24:35.126Z,11.62
2022-12-29T11:25:35.123Z,11.58
2022-12-29T11:26:35.403Z,11.58
2022-12-29T11:27:35.108Z,11.60
2022-12-29T11:28:35.037Z,11.70
2022-12-29T11:29:35.023Z,11.65
2022-12-29T11:30:35.037Z,11.73
2022-12-29T11:31:35.047Z,11.62
2022-12-29T11:32:34.997Z,11.69
2022-12-29T11:33:34.968Z,11.78
2022-12-29T11:34:34.947Z,11.67
2022-12-29T11:35:34.958Z,11.65
2022-12-29T11:36:34.930Z,11.62
2022-12-29T11:37:34.936Z,11.52
2022-12-29T11:38:34.921Z,11.52
2022-12-29T11:39:34.959Z,11.55
2022-12-29T11:40:34.888Z,11.51
2022-12-29T11:41:34.911Z,11.43
2022-12-29T11:42:34.873Z,11.44
2022-12-29T11:43:34.884Z,11.51
2022-12-29T11:44:34.843Z,11.44
2022-12-29T11:45:34.989Z,11.44
2022-12-29T11:46:34.881Z,11.54
2022-12-29T11:47:34.815Z,11.49
2022-12-29T11:48:34.852Z,11.51
2022-12-29T11:49:34.801Z,11.46
2022-12-29T11:50:34.805Z,11.44
2022-12-29T11:51:34.786Z,11.49
2022-12-29T11:52:34.766Z,11.43
2022-12-29T11:53:34.746Z,11.47
2022-12-29T11:54:34.763Z,11.47
2022-12-29T11:55:34.756Z,11.42
2022-12-29T11:56:40.160Z,11.36
2022-12-29T11:57:35.710Z,11.39
2022-12-29T11:58:34.682Z,11.39
2022-12-29T11:59:34.718Z,11.49
2022-12-29T12:00:34.700Z,11.47
2022-12-29T12:01:34.727Z,11.46
2022-12-29T12:02:40.586Z,11.52
2022-12-29T12:03:35.779Z,11.47
2022-12-29T12:04:34.676Z,11.52
2022-12-29T12:05:34.614Z,11.49
2022-12-29T12:06:34.623Z,11.52
2022-12-29T12:07:34.587Z,11.40
2022-12-29T12:08:34.587Z,11.40
2022-12-29T12:09:34.567Z,11.39
2022-12-29T12:10:34.553Z,11.35
2022-12-29T12:11:34.576Z,11.40
2022-12-29T12:12:34.538Z,11.40
2022-12-29T12:13:34.577Z,11.39
2022-12-29T12:14:34.529Z,11.43
2022-12-29T12:15:35.572Z,11.42
2022-12-29T12:16:34.523Z,11.40
2022-12-29T12:17:34.510Z,11.37
2022-12-29T12:18:34.487Z,11.39
2022-12-29T12:19:34.451Z,11.39
2022-12-29T12:20:34.463Z,11.29
2022-12-29T12:21:34.433Z,11.42
2022-12-29T12:22:34.482Z,11.42
2022-12-29T12:23:34.431Z,11.37
2022-12-29T12:24:34.394Z,11.44
2022-12-29T12:25:34.397Z,11.37
2022-12-29T12:26:34.380Z,11.37
2022-12-29T12:27:34.366Z,11.36
2022-12-29T12:28:36.734Z,11.42
2022-12-29T12:29:34.344Z,11.40
2022-12-29T12:30:34.321Z,11.36
2022-12-29T12:31:34.387Z,11.43
2022-12-29T12:32:34.318Z,11.47
2022-12-29T12:33:34.300Z,11.49
2022-12-29T12:34:34.303Z,11.52
2022-12-29T12:35:34.272Z,11.37
2022-12-29T12:36:34.284Z,11.46
2022-12-29T12:37:34.257Z,11.47
2022-12-29T12:38:34.232Z,11.40
2022-12-29T12:39:34.265Z,11.40
2022-12-29T12:40:34.266Z,11.36
2022-12-29T12:41:34.215Z,11.46
2022-12-29T12:42:34.205Z,11.39
2022-12-29T12:43:34.212Z,11.43
2022-12-29T12:44:34.201Z,11.40
2022-12-29T12:45:34.168Z,11.44
2022-12-29T12:46:34.202Z,11.37
2022-12-29T12:47:34.147Z,11.44
2022-12-29T12:48:34.155Z,11.47
2022-12-29T12:49:34.126Z,11.39
2022-12-29T12:50:34.101Z,11.37
2022-12-29T12:51:34.128Z,11.46
2022-12-29T12:52:34.108Z,11.40
2022-12-29T12:53:34.092Z,11.37
2022-12-29T12:54:34.057Z,11.42
2022-12-29T12:55:34.080Z,11.40
2022-12-29T12:56:34.079Z,11.27